Time;durP1;ratioP1;P1;durP2;ratioP2;P2;SDS_P1;SDS_P2;PMS_P1;PMS_P2;Temp;Humidity;BMP_temperature;BMP_pressure;BME280_temperature;BME280_humidity;BME280_pressure;Samples;Min_cycle;Max_cycle;Signal;HPM_P1;HPM_P2
2023/08/08 00:00:30;;;;;;;1.50;1.40;;;;;;;17.99;94.18;94514.47;5092904;28;20225;-44
2023/08/08 00:02:57;;;;;;;1.30;1.30;;;;;;;17.91;94.61;94514.59;5078913;28;20198;-43
2023/08/08 00:05:24;;;;;;;2.67;1.53;;;;;;;17.85;96.09;94517.13;5072658;28;20187;-43
2023/08/08 00:07:52;;;;;;;1.73;1.63;;;;;;;17.76;95.99;94525.03;5072553;28;20197;-43
2023/08/08 00:10:19;;;;;;;1.70;1.60;;;;;;;17.70;95.56;94522.34;5072196;28;20199;-41
2023/08/08 00:12:46;;;;;;;1.60;1.50;;;;;;;17.63;95.74;94516.31;5072754;28;20186;-43
2023/08/08 00:15:13;;;;;;;1.60;1.50;;;;;;;17.63;95.74;94521.50;5072146;28;20180;-42
2023/08/08 00:17:39;;;;;;;1.70;1.60;;;;;;;17.55;95.20;94517.25;5072210;28;20604;-42
2023/08/08 00:20:08;;;;;;;1.70;1.60;;;;;;;17.56;94.25;94513.66;5072088;28;20198;-42
2023/08/08 00:22:34;;;;;;;3.03;1.90;;;;;;;17.49;94.58;94516.19;5072625;28;20206;-42
2023/08/08 00:25:03;;;;;;;1.60;1.50;;;;;;;17.32;94.96;94495.94;5072172;28;20198;-41
2023/08/08 00:27:30;;;;;;;1.70;1.60;;;;;;;17.37;94.60;94516.88;5072194;28;20194;-41
2023/08/08 00:29:57;;;;;;;2.03;1.40;;;;;;;17.38;95.25;94523.63;5071687;28;20197;-41
2023/08/08 00:32:24;;;;;;;2.63;1.60;;;;;;;17.39;94.83;94525.22;5072196;28;20195;-43
2023/08/08 00:34:50;;;;;;;2.60;1.40;;;;;;;17.41;94.24;94531.03;5072119;28;20187;-44
2023/08/08 00:37:17;;;;;;;1.70;1.60;;;;;;;17.36;94.28;94530.75;5071662;28;20581;-43
2023/08/08 00:39:45;;;;;;;1.50;1.40;;;;;;;17.30;94.67;94534.88;5071959;28;20264;-42
2023/08/08 00:42:14;;;;;;;1.77;1.67;;;;;;;17.28;94.59;94529.09;5071724;28;20222;-43
2023/08/08 00:44:41;;;;;;;2.00;1.80;;;;;;;17.14;94.92;94514.41;5071824;28;20186;-41
2023/08/08 00:47:09;;;;;;;1.63;1.53;;;;;;;17.18;94.71;94537.13;5071831;28;20244;-43
2023/08/08 00:49:36;;;;;;;1.67;1.57;;;;;;;17.08;94.85;94536.63;5072060;28;20193;-42
2023/08/08 00:52:03;;;;;;;1.70;1.60;;;;;;;17.14;94.35;94543.66;5070820;28;20199;-42
2023/08/08 00:54:29;;;;;;;1.47;1.47;;;;;;;17.09;94.91;94545.97;5071747;28;20190;-42
2023/08/08 00:56:56;;;;;;;1.40;1.40;;;;;;;17.12;95.29;94544.81;5071678;28;20210;-41
2023/08/08 00:59:25;;;;;;;1.83;1.73;;;;;;;17.12;95.18;94544.81;5071497;28;20685;-43
2023/08/08 01:01:52;;;;;;;1.70;1.60;;;;;;;17.10;94.61;94546.78;5071042;28;20227;-41
2023/08/08 01:04:19;;;;;;;1.70;1.60;;;;;;;17.14;93.58;94548.00;5071471;28;20685;-43
2023/08/08 01:06:58;;;;;;;1.50;1.50;;;;;;;17.11;93.63;94550.97;5071110;28;20194;-43
2023/08/08 01:09:31;;;;;;;1.43;1.40;;;;;;;17.11;94.16;94553.56;5071490;28;20676;-43
2023/08/08 01:11:58;;;;;;;2.33;2.00;;;;;;;17.11;93.90;94562.13;5071076;28;20190;-41
2023/08/08 01:14:29;;;;;;;1.40;1.40;;;;;;;17.09;93.84;94558.88;5071441;28;20186;-43
2023/08/08 01:16:57;;;;;;;1.80;1.70;;;;;;;17.11;93.33;94556.16;5070899;28;20186;-44
2023/08/08 01:19:28;;;;;;;1.70;1.60;;;;;;;17.15;92.13;94555.59;5071515;28;20259;-42
2023/08/08 01:21:58;;;;;;;1.70;1.60;;;;;;;17.10;93.25;94555.34;5070945;28;20639;-42
2023/08/08 01:24:29;;;;;;;1.73;1.63;;;;;;;17.11;93.09;94556.94;5071029;28;20191;-42
2023/08/08 01:26:56;;;;;;;2.67;1.57;;;;;;;16.88;92.92;94527.84;5070718;28;20206;-42
2023/08/08 01:29:23;;;;;;;1.73;1.63;;;;;;;17.07;93.60;94560.06;5070725;28;20194;-41
2023/08/08 01:31:50;;;;;;;1.80;1.70;;;;;;;17.06;93.38;94567.03;5070752;28;20241;-42
2023/08/08 01:34:17;;;;;;;1.63;1.57;;;;;;;17.03;93.35;94572.53;5070751;28;20678;-43
2023/08/08 01:36:49;;;;;;;1.70;1.60;;;;;;;17.03;92.92;94578.50;5070783;28;20199;-43
2023/08/08 01:39:21;;;;;;;1.77;1.60;;;;;;;17.08;91.71;94595.25;5070954;28;20181;-42
2023/08/08 01:41:49;;;;;;;3.03;1.80;;;;;;;17.03;92.19;94599.19;5070856;28;20218;-44
2023/08/08 01:44:17;;;;;;;1.60;1.50;;;;;;;17.00;92.33;94591.78;5070945;28;20191;-43
2023/08/08 01:46:44;;;;;;;1.60;1.50;;;;;;;16.95;92.24;94595.88;5070701;28;20690;-43
2023/08/08 01:49:11;;;;;;;1.63;1.57;;;;;;;16.93;92.54;94596.06;5070625;28;20194;-44
2023/08/08 01:51:38;;;;;;;1.43;1.40;;;;;;;16.95;91.73;94601.06;5070757;28;20187;-44
2023/08/08 01:54:05;;;;;;;5.00;1.70;;;;;;;16.94;91.25;94597.69;5070428;28;20201;-44
2023/08/08 01:56:31;;;;;;;1.83;1.73;;;;;;;16.39;92.07;94534.31;5070827;28;20193;-43
2023/08/08 01:58:59;;;;;;;1.60;1.60;;;;;;;16.91;92.33;94615.31;5070468;28;20214;-42
2023/08/08 02:01:26;;;;;;;2.43;1.70;;;;;;;16.87;93.40;94621.81;5070357;28;20222;-43
2023/08/08 02:03:53;;;;;;;1.70;1.60;;;;;;;16.86;93.14;94617.63;5069818;28;20186;-42
2023/08/08 02:06:20;;;;;;;1.60;1.50;;;;;;;16.85;92.99;94618.63;5070339;28;20198;-42
2023/08/08 02:08:47;;;;;;;1.60;1.50;;;;;;;16.86;92.21;94615.84;5069882;28;20205;-44
2023/08/08 02:11:14;;;;;;;2.93;1.67;;;;;;;16.85;92.23;94616.84;5070055;28;20664;-43
2023/08/08 02:13:40;;;;;;;13.03;2.30;;;;;;;16.88;92.76;94613.06;5070298;28;20261;-43
2023/08/08 02:16:08;;;;;;;1.70;1.60;;;;;;;16.90;92.80;94616.28;5070275;28;20190;-43
2023/08/08 02:18:36;;;;;;;1.90;1.80;;;;;;;16.89;92.31;94620.66;5069928;28;20194;-43
2023/08/08 02:21:02;;;;;;;2.10;1.90;;;;;;;16.93;91.81;94629.66;5069703;28;20191;-43
2023/08/08 02:23:29;;;;;;;1.83;1.73;;;;;;;16.92;91.99;94634.97;5070198;28;20205;-43
2023/08/08 02:25:56;;;;;;;1.90;1.80;;;;;;;16.97;91.41;94637.88;5070302;28;20187;-44
2023/08/08 02:28:23;;;;;;;1.70;1.60;;;;;;;16.95;91.05;94643.19;5070115;28;20657;-43
2023/08/08 02:30:49;;;;;;;2.83;1.57;;;;;;;16.94;91.56;94646.75;5069844;28;20229;-43
2023/08/08 02:33:17;;;;;;;3.60;2.00;;;;;;;16.92;91.69;94642.72;5070342;28;20186;-44
2023/08/08 02:35:44;;;;;;;1.80;1.70;;;;;;;16.91;91.93;94631.59;5069712;28;20263;-42
2023/08/08 02:38:11;;;;;;;2.47;1.60;;;;;;;16.91;92.44;94634.19;5070054;28;20198;-42
2023/08/08 02:40:38;;;;;;;1.80;1.70;;;;;;;16.91;92.42;94641.94;5069469;28;20197;-43
2023/08/08 02:43:05;;;;;;;2.43;1.80;;;;;;;16.89;92.81;94649.06;5069766;28;20665;-41
2023/08/08 02:45:32;;;;;;;2.90;1.67;;;;;;;16.85;93.18;94650.41;5069722;28;20197;-42
2023/08/08 02:47:59;;;;;;;1.73;1.63;;;;;;;16.80;93.68;94644.97;5069687;28;20191;-43
2023/08/08 02:50:27;;;;;;;2.20;2.00;;;;;;;16.91;93.33;94657.44;5069639;28;20296;-43
2023/08/08 02:52:54;;;;;;;3.97;2.00;;;;;;;16.93;93.22;94657.28;5069728;28;20198;-44
2023/08/08 02:55:21;;;;;;;1.90;1.80;;;;;;;16.94;93.08;94658.88;5069687;28;20190;-42
2023/08/08 02:57:47;;;;;;;3.37;2.43;;;;;;;16.93;92.91;94671.00;5069402;28;20676;-42
2023/08/08 03:00:14;;;;;;;2.63;2.00;;;;;;;16.89;93.25;94680.06;5069769;28;20190;-43
2023/08/08 03:02:41;;;;;;;2.10;2.00;;;;;;;16.86;92.66;94672.66;5069602;28;20222;-44
2023/08/08 03:05:09;;;;;;;2.00;1.90;;;;;;;16.94;92.71;94671.78;5069650;28;20193;-45
2023/08/08 03:07:37;;;;;;;2.40;2.20;;;;;;;16.92;93.01;94664.19;5069391;28;20589;-43
2023/08/08 03:10:04;;;;;;;2.13;2.00;;;;;;;16.93;92.53;94668.41;5069681;28;20202;-43
2023/08/08 03:12:31;;;;;;;2.37;2.17;;;;;;;16.91;92.52;94665.19;5069932;28;20183;-44
2023/08/08 03:14:58;;;;;;;2.83;2.00;;;;;;;16.88;92.09;94662.97;5069832;28;20198;-42
2023/08/08 03:17:25;;;;;;;2.10;2.00;;;;;;;16.89;91.84;94679.28;5072822;28;20247;-42
2023/08/08 03:19:51;;;;;;;1.90;1.80;;;;;;;16.90;92.01;94676.50;5073726;28;20214;-42
2023/08/08 03:22:18;;;;;;;2.00;1.90;;;;;;;16.93;91.67;94668.41;5073375;28;20259;-43
2023/08/08 03:24:46;;;;;;;2.30;2.10;;;;;;;16.92;92.04;94677.13;5073521;28;20186;-44
2023/08/08 03:27:13;;;;;;;2.50;2.30;;;;;;;16.95;92.15;94671.59;5073609;28;20190;-43
2023/08/08 03:29:40;;;;;;;2.20;2.10;;;;;;;16.85;92.15;94672.84;5073256;28;20182;-42
2023/08/08 03:32:07;;;;;;;2.40;2.30;;;;;;;16.92;91.80;94686.66;5073576;28;20197;-42
2023/08/08 03:34:34;;;;;;;3.20;2.37;;;;;;;16.92;92.11;94676.31;5073249;28;20201;-43
2023/08/08 03:37:01;;;;;;;2.83;2.30;;;;;;;16.97;91.98;94674.03;5073456;28;20190;-40
2023/08/08 03:39:28;;;;;;;2.27;2.17;;;;;;;16.95;91.94;94674.19;5073887;28;20190;-43
2023/08/08 03:41:56;;;;;;;3.53;2.23;;;;;;;16.93;92.12;94689.06;5073371;28;20313;-42
2023/08/08 03:44:22;;;;;;;2.23;2.07;;;;;;;16.92;92.13;94689.22;5073192;28;20247;-43
2023/08/08 03:46:50;;;;;;;3.13;2.40;;;;;;;16.85;92.19;94671.06;5073251;28;20190;-41
2023/08/08 03:49:17;;;;;;;8.33;2.83;;;;;;;16.92;92.14;94682.28;5073004;28;20179;-42
2023/08/08 03:51:44;;;;;;;2.60;2.40;;;;;;;16.91;91.71;94674.72;5072794;28;20190;-45
2023/08/08 03:54:11;;;;;;;3.20;2.70;;;;;;;16.92;91.92;94674.53;5072591;28;20194;-43
2023/08/08 03:56:37;;;;;;;4.27;2.33;;;;;;;16.97;91.98;94672.25;5073022;28;20193;-42
2023/08/08 03:59:05;;;;;;;2.30;2.10;;;;;;;17.01;91.47;94683.84;5073068;28;20182;-43
2023/08/08 04:01:33;;;;;;;2.60;2.30;;;;;;;17.09;90.43;94680.34;5072470;28;20195;-44
2023/08/08 04:03:59;;;;;;;2.70;2.50;;;;;;;17.13;90.79;94680.78;5072798;28;20214;-43
2023/08/08 04:06:26;;;;;;;2.70;2.50;;;;;;;17.19;89.94;94687.84;5072258;28;20205;-43
2023/08/08 04:08:53;;;;;;;2.77;2.37;;;;;;;16.69;89.05;94615.19;5072532;28;20192;-43
2023/08/08 04:11:20;;;;;;;2.20;2.10;;;;;;;17.21;88.60;94704.75;5072269;28;20197;-41
2023/08/08 04:13:46;;;;;;;2.93;2.63;;;;;;;17.24;88.00;94713.94;5072254;28;20643;-43
2023/08/08 04:16:15;;;;;;;2.40;2.30;;;;;;;17.18;88.33;94710.28;5072302;28;20284;-40
2023/08/08 04:18:42;;;;;;;4.13;2.57;;;;;;;17.16;88.90;94701.13;5072656;28;20198;-41
2023/08/08 04:21:08;;;;;;;2.60;2.40;;;;;;;17.13;89.56;94706.63;5072746;28;20649;-41
2023/08/08 04:23:35;;;;;;;2.40;2.20;;;;;;;17.12;90.08;94711.00;5073804;28;20343;-44
2023/08/08 04:26:02;;;;;;;2.67;2.50;;;;;;;17.18;89.44;94720.63;5072077;28;20642;-43
2023/08/08 04:28:29;;;;;;;2.60;2.40;;;;;;;17.15;88.31;94713.25;5072293;28;20198;-43
2023/08/08 04:30:55;;;;;;;2.77;2.57;;;;;;;17.19;89.06;94714.50;5071788;28;20666;-41
2023/08/08 04:33:24;;;;;;;2.80;2.60;;;;;;;17.33;88.18;94719.84;5071934;28;20590;-42
2023/08/08 04:35:52;;;;;;;2.87;2.67;;;;;;;17.39;87.45;94726.88;5071957;28;20197;-42
2023/08/08 04:38:18;;;;;;;2.83;2.63;;;;;;;17.44;87.21;94727.97;5071950;28;20692;-46
2023/08/08 04:40:45;;;;;;;2.70;2.50;;;;;;;17.51;86.95;94717.69;5072312;28;20205;-44
2023/08/08 04:43:12;;;;;;;3.07;2.87;;;;;;;17.59;87.26;94715.00;5071718;28;20210;-44
2023/08/08 04:45:39;;;;;;;4.87;2.80;;;;;;;17.70;86.93;94703.38;5072054;28;20570;-43
2023/08/08 04:48:06;;;;;;;2.80;2.60;;;;;;;17.85;86.43;94703.41;5072262;28;20194;-42
2023/08/08 04:50:35;;;;;;;2.90;2.70;;;;;;;17.94;84.77;94710.88;5072063;28;20188;-43
2023/08/08 04:53:01;;;;;;;2.77;2.53;;;;;;;18.05;83.53;94717.38;5071502;28;20199;-41
2023/08/08 04:55:28;;;;;;;2.63;2.43;;;;;;;18.06;83.18;94724.13;5071648;28;20213;-44
2023/08/08 04:57:55;;;;;;;3.50;2.83;;;;;;;18.07;82.54;94738.69;5071486;28;20186;-43
2023/08/08 05:00:21;;;;;;;3.63;2.53;;;;;;;18.03;82.03;94729.66;5071482;28;20213;-44
2023/08/08 05:02:48;;;;;;;2.73;2.53;;;;;;;18.15;82.00;94754.09;5071135;28;20233;-41
2023/08/08 05:05:15;;;;;;;3.20;2.90;;;;;;;18.22;81.63;94762.75;5071208;28;20682;-42
2023/08/08 05:07:43;;;;;;;4.17;2.97;;;;;;;18.43;82.43;94761.94;5071757;28;20186;-44
2023/08/08 05:10:11;;;;;;;5.93;2.83;;;;;;;18.84;81.38;94774.31;5071276;28;20601;-44
2023/08/08 05:12:38;;;;;;;2.23;2.13;;;;;;;19.18;79.66;94783.16;5071503;28;20178;-42
2023/08/08 05:15:05;;;;;;;2.73;2.53;;;;;;;19.53;78.16;94784.78;5071224;28;20295;-45
2023/08/08 05:17:32;;;;;;;2.47;2.10;;;;;;;19.93;75.88;94782.44;5071236;28;20201;-45
2023/08/08 05:19:59;;;;;;;2.80;2.60;;;;;;;20.30;72.54;94786.38;5070908;28;20187;-42
2023/08/08 05:22:26;;;;;;;3.60;2.10;;;;;;;20.59;72.66;94792.25;5071100;28;20206;-45
2023/08/08 05:24:54;;;;;;;2.42;2.15;;;;;;;20.90;70.61;94785.72;5071061;28;20247;-43
2023/08/08 05:27:21;;;;;;;2.28;2.08;;;;;;;21.09;69.59;94789.31;5070930;28;20187;-44
2023/08/08 05:29:48;;;;;;;1.95;1.85;;;;;;;21.11;68.06;94787.31;5070889;28;20209;-44
2023/08/08 05:32:14;;;;;;;2.45;2.15;;;;;;;21.19;68.78;94794.91;5071219;28;20559;-42
2023/08/08 05:34:41;;;;;;;4.00;2.00;;;;;;;21.43;67.84;94794.34;5071243;28;20200;-44
2023/08/08 05:37:08;;;;;;;2.00;1.90;;;;;;;21.76;64.97;94814.28;5071101;28;20608;-44
2023/08/08 05:39:35;;;;;;;3.70;2.20;;;;;;;21.89;65.35;94822.09;5070138;28;20222;-43
2023/08/08 05:42:03;;;;;;;2.28;2.05;;;;;;;22.06;64.79;94822.41;5070409;28;20197;-43
2023/08/08 05:44:30;;;;;;;2.00;1.90;;;;;;;22.35;65.01;94817.75;5070535;28;20221;-44
2023/08/08 05:46:57;;;;;;;2.25;2.15;;;;;;;22.77;61.93;94824.16;5070525;28;20190;-44
2023/08/08 05:49:24;;;;;;;2.17;2.03;;;;;;;22.90;61.82;94828.50;5070457;28;20190;-45
2023/08/08 05:51:50;;;;;;;2.10;1.98;;;;;;;22.98;61.84;94834.28;5070248;28;20186;-43
2023/08/08 05:54:17;;;;;;;1.92;1.83;;;;;;;22.82;61.19;94823.50;5070447;28;20205;-46
2023/08/08 05:56:44;;;;;;;4.00;2.67;;;;;;;22.65;61.79;94826.63;5070361;28;20194;-46
2023/08/08 05:59:12;;;;;;;2.60;2.40;;;;;;;22.59;61.52;94835.28;5070339;28;20201;-42
2023/08/08 06:01:39;;;;;;;4.03;2.50;;;;;;;22.31;62.66;94845.22;5069976;28;20200;-44
2023/08/08 06:04:05;;;;;;;2.60;2.40;;;;;;;22.09;64.27;94862.91;5070120;28;20705;-43
2023/08/08 06:06:32;;;;;;;2.42;2.22;;;;;;;21.91;64.51;94863.53;5070006;28;20323;-44
2023/08/08 06:08:59;;;;;;;2.17;2.03;;;;;;;21.71;64.88;94848.75;5070187;28;20248;-44
2023/08/08 06:11:26;;;;;;;3.15;2.00;;;;;;;21.62;65.14;94847.34;5069937;28;20199;-45
2023/08/08 06:13:54;;;;;;;2.65;2.45;;;;;;;;;;5070026;28;20267;-43
2023/08/08 06:16:22;;;;;;;2.20;2.10;;;;;;;21.41;66.66;94852.78;5069808;28;20194;-42
2023/08/08 06:18:49;;;;;;;2.88;2.15;;;;;;;21.48;66.43;94841.38;5069753;28;20662;-44
2023/08/08 06:21:16;;;;;;;2.53;2.33;;;;;;;21.47;64.19;94833.78;5070000;28;20198;-44
2023/08/08 06:23:43;;;;;;;2.92;2.20;;;;;;;21.86;64.50;94842.53;5070168;28;20229;-42
2023/08/08 06:26:10;;;;;;;2.17;2.08;;;;;;;22.24;63.52;94832.22;5070138;28;20193;-43
2023/08/08 06:28:37;;;;;;;5.10;2.42;;;;;;;22.41;62.24;94827.31;5069902;28;20183;-44
2023/08/08 06:31:04;;;;;;;2.50;2.30;;;;;;;22.59;60.52;94837.09;5069562;28;20609;-42
2023/08/08 06:33:32;;;;;;;2.08;1.98;;;;;;;22.72;59.85;94834.41;5069362;28;20236;-43
2023/08/08 06:35:59;;;;;;;1.90;1.80;;;;;;;22.84;60.30;94835.34;5070081;28;20194;-44
2023/08/08 06:38:26;;;;;;;4.32;2.28;;;;;;;23.12;60.08;94834.19;5069855;28;20287;-44
2023/08/08 06:40:52;;;;;;;3.17;1.92;;;;;;;23.52;57.90;94834.66;5070187;28;20190;-42
2023/08/08 06:43:19;;;;;;;1.88;1.77;;;;;;;23.76;55.36;94831.25;5069571;28;20221;-43
2023/08/08 06:45:46;;;;;;;2.20;2.00;;;;;;;23.73;56.15;94833.50;5070028;28;20190;-43
2023/08/08 06:48:13;;;;;;;2.00;1.80;;;;;;;23.65;56.26;94834.56;5069281;28;20252;-42
2023/08/08 06:50:41;;;;;;;2.05;1.95;;;;;;;23.69;55.11;94830.50;5068799;28;20198;-43
2023/08/08 06:53:09;;;;;;;1.98;1.35;;;;;;;23.61;54.48;94833.38;5069719;28;20197;-45
2023/08/08 06:55:37;;;;;;;2.17;1.55;;;;;;;23.72;52.10;94845.75;5069547;28;20190;-43
2023/08/08 06:58:04;;;;;;;1.77;1.60;;;;;;;23.94;51.72;94840.91;5069490;28;20179;-42
2023/08/08 07:00:31;;;;;;;1.80;1.70;;;;;;;24.18;49.69;94843.66;5069210;28;20618;-43
2023/08/08 07:02:57;;;;;;;1.60;1.50;;;;;;;24.22;50.34;94847.44;5069521;28;20601;-44
2023/08/08 07:05:25;;;;;;;2.10;1.80;;;;;;;24.20;50.96;94839.84;5068866;28;20533;-43
2023/08/08 07:07:53;;;;;;;2.17;2.08;;;;;;;24.45;49.42;94841.59;5069730;28;20197;-43
2023/08/08 07:10:20;;;;;;;1.80;1.70;;;;;;;24.57;48.66;94854.69;5069309;28;20178;-45
2023/08/08 07:12:48;;;;;;;1.90;1.70;;;;;;;24.43;49.42;94844.41;5069730;28;20721;-44
2023/08/08 07:15:15;;;;;;;2.05;1.75;;;;;;;24.59;49.62;94847.44;5069232;28;20195;-44
2023/08/08 07:17:42;;;;;;;3.45;1.98;;;;;;;24.73;48.06;94843.63;5069196;28;20190;-44
2023/08/08 07:20:13;;;;;;;1.65;1.55;;;;;;;24.82;48.35;94850.16;5069591;28;20190;-44
2023/08/08 07:22:40;;;;;;;2.03;1.92;;;;;;;24.77;48.15;94847.41;5069200;28;20194;-45
2023/08/08 07:25:11;;;;;;;2.33;2.13;;;;;;;24.87;47.59;94844.25;5068984;28;20191;-42
2023/08/08 07:27:38;;;;;;;2.53;1.75;;;;;;;24.87;48.13;94833.78;5069163;28;20633;-42
2023/08/08 07:30:06;;;;;;;1.70;1.60;;;;;;;25.00;47.27;94844.09;5068859;28;20229;-44
2023/08/08 07:32:33;;;;;;;1.50;1.40;;;;;;;25.14;46.76;94847.34;5069129;28;20229;-43
2023/08/08 07:35:02;;;;;;;1.45;1.40;;;;;;;25.27;45.81;94840.06;5069068;28;20581;-46
2023/08/08 07:37:29;;;;;;;1.55;1.45;;;;;;;25.42;45.36;94838.81;5069410;28;20262;-45
2023/08/08 07:39:56;;;;;;;3.30;1.45;;;;;;;25.56;45.88;94840.22;5069396;28;20191;-43
2023/08/08 07:42:24;;;;;;;1.52;1.42;;;;;;;25.79;45.93;94849.13;5069188;28;20577;-44
2023/08/08 07:44:51;;;;;;;3.25;1.65;;;;;;;26.01;43.95;94856.19;5069025;28;20222;-43
2023/08/08 07:47:18;;;;;;;1.23;1.23;;;;;;;25.86;43.59;94845.34;5068524;28;20624;-43
2023/08/08 07:49:45;;;;;;;2.42;1.30;;;;;;;25.78;43.60;94856.19;5069057;28;20190;-44
2023/08/08 07:52:11;;;;;;;1.67;1.20;;;;;;;25.61;44.33;94847.41;5068695;28;20194;-42
2023/08/08 07:54:38;;;;;;;1.40;1.30;;;;;;;25.65;43.92;94846.72;5069257;28;20255;-43
2023/08/08 07:57:05;;;;;;;2.78;1.48;;;;;;;25.73;43.45;94848.16;5068653;28;20186;-42
2023/08/08 07:59:33;;;;;;;1.60;1.50;;;;;;;25.81;44.13;94840.00;5068602;28;20194;-42
2023/08/08 08:02:00;;;;;;;2.35;1.50;;;;;;;26.02;44.55;94849.09;5069866;28;20198;-45
2023/08/08 08:04:27;;;;;;;1.60;1.50;;;;;;;26.29;43.40;94844.16;5072543;28;20229;-44
2023/08/08 08:06:54;;;;;;;1.35;1.25;;;;;;;26.47;43.03;94844.03;5072558;28;20190;-44
2023/08/08 08:09:21;;;;;;;1.38;1.38;;;;;;;26.56;42.32;94835.81;5072736;28;20183;-41
2023/08/08 08:11:47;;;;;;;2.38;1.40;;;;;;;26.42;43.22;94843.09;5072360;28;20758;-43
2023/08/08 08:14:14;;;;;;;1.80;1.70;;;;;;;26.51;43.63;94841.72;5072564;28;20244;-43
2023/08/08 08:16:42;;;;;;;1.58;1.45;;;;;;;26.47;43.86;94844.03;5072470;28;20205;-43
2023/08/08 08:19:09;;;;;;;1.60;1.50;;;;;;;26.61;43.12;94841.94;5072505;28;20277;-42
2023/08/08 08:21:36;;;;;;;1.35;1.35;;;;;;;26.41;44.14;94839.69;5072647;28;20183;-44
2023/08/08 08:24:03;;;;;;;1.65;1.55;;;;;;;26.37;43.26;94850.88;5072165;28;20232;-42
2023/08/08 08:26:30;;;;;;;3.58;1.50;;;;;;;26.41;42.85;94849.38;5072196;28;20183;-44
2023/08/08 08:28:57;;;;;;;1.92;1.20;;;;;;;26.55;42.23;94861.22;5071854;28;20194;-43
2023/08/08 08:31:24;;;;;;;4.03;1.60;;;;;;;26.75;42.05;94852.94;5071782;28;20551;-41
2023/08/08 08:33:53;;;;;;;2.22;1.67;;;;;;;26.87;41.27;94853.69;5072003;28;20198;-42
2023/08/08 08:36:21;;;;;;;1.70;1.60;;;;;;;26.65;41.61;94842.28;5071863;28;20198;-42
2023/08/08 08:38:48;;;;;;;1.60;1.50;;;;;;;26.45;42.33;94855.78;5071948;28;20194;-43
2023/08/08 08:41:19;;;;;;;1.70;1.55;;;;;;;26.12;43.30;94843.28;5072162;28;20292;-43
2023/08/08 08:43:46;;;;;;;4.47;1.70;;;;;;;26.09;43.55;94847.16;5071501;28;20309;-44
2023/08/08 08:46:14;;;;;;;2.33;1.80;;;;;;;26.01;43.78;94816.84;5071844;28;20191;-44
2023/08/08 08:48:42;;;;;;;3.13;1.50;;;;;;;26.11;42.96;94850.34;5071669;28;20190;-43
2023/08/08 08:51:11;;;;;;;1.73;1.63;;;;;;;26.05;43.90;94847.84;5072260;28;20205;-43
2023/08/08 08:53:39;;;;;;;1.80;1.70;;;;;;;26.01;43.87;94827.34;5071698;28;20217;-43
2023/08/08 08:56:06;;;;;;;3.22;2.00;;;;;;;25.92;43.35;94854.13;5071581;28;20226;-45
2023/08/08 08:58:33;;;;;;;2.28;2.08;;;;;;;25.51;44.04;94863.66;5071501;28;20222;-44
2023/08/08 09:01:00;;;;;;;1.90;1.80;;;;;;;25.32;44.41;94862.16;5071552;28;20220;-43
2023/08/08 09:03:27;;;;;;;1.40;1.35;;;;;;;25.27;44.39;94855.78;5071557;28;20233;-43
2023/08/08 09:05:55;;;;;;;2.13;1.83;;;;;;;25.28;45.79;94851.34;5071312;28;20191;-44
2023/08/08 09:08:23;;;;;;;1.63;1.52;;;;;;;25.12;45.01;94851.97;5071478;28;20654;-43
2023/08/08 09:10:51;;;;;;;1.83;1.73;;;;;;;24.95;45.99;94849.97;5071799;28;20179;-44
2023/08/08 09:13:17;;;;;;;1.88;1.77;;;;;;;24.81;45.12;94851.19;5070372;28;20199;-44
2023/08/08 09:15:49;;;;;;;1.60;1.50;;;;;;;24.79;45.16;94842.75;5070825;28;20648;-43
2023/08/08 09:18:15;;;;;;;1.30;1.30;;;;;;;24.81;44.65;94850.38;5071541;28;20302;-45
2023/08/08 09:20:48;;;;;;;1.85;1.67;;;;;;;24.82;45.47;94846.72;5071097;28;20194;-43
2023/08/08 09:23:15;;;;;;;2.25;1.40;;;;;;;24.71;44.71;94846.47;5070987;28;20662;-44
2023/08/08 09:25:43;;;;;;;2.28;1.70;;;;;;;24.36;44.88;94830.59;5070642;28;20190;-43
2023/08/08 09:28:10;;;;;;;2.13;1.73;;;;;;;24.26;46.06;94849.41;5071085;28;20578;-44
2023/08/08 09:30:37;;;;;;;1.80;1.70;;;;;;;24.34;46.27;94855.34;5070610;28;20226;-44
2023/08/08 09:33:04;;;;;;;7.53;1.67;;;;;;;24.38;46.96;94840.88;5071011;28;20190;-44
2023/08/08 09:35:31;;;;;;;2.55;1.50;;;;;;;24.28;46.83;94849.19;5070763;28;20217;-43
2023/08/08 09:37:58;;;;;;;3.22;2.20;;;;;;;24.24;47.05;94853.25;5070839;28;20217;-42
2023/08/08 09:40:24;;;;;;;1.77;1.67;;;;;;;24.08;47.08;94859.88;5070607;28;20194;-43
2023/08/08 09:42:53;;;;;;;1.70;1.60;;;;;;;23.86;47.14;94863.91;5070568;28;20607;-44
2023/08/08 09:45:22;;;;;;;3.38;1.58;;;;;;;23.83;47.09;94857.28;5070622;28;20229;-43
2023/08/08 09:47:52;;;;;;;2.00;1.90;;;;;;;23.98;45.57;94854.34;5070682;28;20195;-43
2023/08/08 09:50:20;;;;;;;1.63;1.48;;;;;;;23.77;45.95;94826.81;5070405;28;20297;-43
2023/08/08 09:52:47;;;;;;;1.70;1.60;;;;;;;23.99;45.72;94858.56;5070099;28;20199;-43
2023/08/08 09:55:15;;;;;;;1.83;1.70;;;;;;;23.89;45.89;94866.09;5070286;28;20186;-43
2023/08/08 09:57:42;;;;;;;1.80;1.70;;;;;;;23.82;46.00;94860.94;5070122;28;20186;-44
2023/08/08 10:00:15;;;;;;;1.70;1.60;;;;;;;23.85;46.52;94857.09;5070611;28;20191;-44
2023/08/08 10:02:43;;;;;;;3.58;1.70;;;;;;;23.89;45.81;94853.03;5070469;28;20265;-43
2023/08/08 10:05:12;;;;;;;1.77;1.67;;;;;;;23.97;45.61;94850.16;5070339;28;20205;-42
2023/08/08 10:07:39;;;;;;;1.83;1.73;;;;;;;24.02;45.98;94845.84;5070265;28;20190;-43
2023/08/08 10:10:09;;;;;;;1.70;1.60;;;;;;;24.21;45.86;94853.69;5070231;28;20194;-43
2023/08/08 10:12:38;;;;;;;1.60;1.50;;;;;;;24.38;45.19;94852.13;5069857;28;20603;-45
2023/08/08 10:15:08;;;;;;;1.90;1.80;;;;;;;24.35;45.74;94847.28;5070192;28;20201;-42
2023/08/08 10:17:38;;;;;;;1.85;1.75;;;;;;;24.32;46.37;94852.19;5069652;28;20186;-45
2023/08/08 10:20:11;;;;;;;1.60;1.50;;;;;;;24.22;46.65;94853.50;5069948;28;20206;-43
2023/08/08 10:22:39;;;;;;;2.10;1.95;;;;;;;24.22;46.49;94857.91;5069594;28;20186;-42
2023/08/08 10:25:06;;;;;;;1.95;1.85;;;;;;;24.13;46.48;94849.56;5070106;28;20242;-44
2023/08/08 10:27:34;;;;;;;2.97;1.85;;;;;;;24.04;46.01;94849.03;5069801;28;20349;-44
2023/08/08 10:30:09;;;;;;;1.70;1.60;;;;;;;24.05;46.08;94855.09;5070116;28;20238;-44
2023/08/08 10:32:46;;;;;;;1.50;1.50;;;;;;;23.96;46.54;94848.53;5069307;28;20201;-43
2023/08/08 10:35:13;;;;;;;1.30;1.30;;;;;;;23.93;46.48;94852.38;5069958;28;20204;-43
2023/08/08 10:37:42;;;;;;;1.73;1.42;;;;;;;23.91;46.76;94835.31;5069744;28;20252;-44
2023/08/08 10:40:11;;;;;;;1.85;1.67;;;;;;;23.99;46.64;94837.66;5069874;28;20263;-43
2023/08/08 10:42:46;;;;;;;1.58;1.50;;;;;;;24.08;46.93;94831.13;5069381;28;20713;-43
2023/08/08 10:45:15;;;;;;;1.80;1.70;;;;;;;24.22;46.72;94834.38;5069508;28;20213;-42
2023/08/08 10:47:45;;;;;;;1.88;1.77;;;;;;;24.36;46.63;94830.59;5069375;28;20243;-42
2023/08/08 10:50:14;;;;;;;2.22;1.60;;;;;;;24.29;45.81;94801.13;5069545;28;20664;-42
2023/08/08 10:52:52;;;;;;;1.45;1.45;;;;;;;24.50;45.69;94828.66;5069231;28;20555;-43
2023/08/08 10:55:23;;;;;;;1.77;1.67;;;;;;;24.40;46.20;94813.50;5069415;28;20669;-43
2023/08/08 10:57:58;;;;;;;1.75;1.65;;;;;;;24.49;45.96;94830.47;5069103;28;20201;-43
2023/08/08 11:00:29;;;;;;;1.40;1.40;;;;;;;24.42;45.47;94831.56;5069687;28;20213;-44
2023/08/08 11:02:58;;;;;;;1.33;1.33;;;;;;;24.18;46.28;94825.38;5069197;28;20230;-43
2023/08/08 11:05:26;;;;;;;1.90;1.40;;;;;;;24.11;46.42;94820.25;5069430;28;20794;-43
2023/08/08 11:07:53;;;;;;;2.45;1.45;;;;;;;24.22;46.77;94832.59;5069380;28;20190;-43
2023/08/08 11:10:22;;;;;;;1.58;1.48;;;;;;;24.30;45.33;94823.63;5069376;28;20603;-43
2023/08/08 11:12:57;;;;;;;1.30;1.30;;;;;;;24.31;45.77;94830.47;5069098;28;20205;-44
2023/08/08 11:15:24;;;;;;;1.60;1.50;;;;;;;24.31;45.40;94822.63;5069279;28;20179;-44
2023/08/08 11:17:52;;;;;;;1.48;1.42;;;;;;;24.29;45.86;94828.06;5069226;28;20216;-42
2023/08/08 11:20:20;;;;;;;2.35;1.40;;;;;;;24.40;46.09;94825.78;5069316;28;20198;-43
2023/08/08 11:22:52;;;;;;;1.50;1.40;;;;;;;24.43;45.79;94839.19;5068998;28;20676;-42
2023/08/08 11:25:19;;;;;;;1.50;1.40;;;;;;;24.24;46.35;94817.47;5069297;28;20992;-45
2023/08/08 11:27:51;;;;;;;1.60;1.50;;;;;;;24.13;46.62;94806.94;5069635;28;20217;-44
2023/08/08 11:30:17;;;;;;;1.60;1.50;;;;;;;24.26;45.96;94812.81;5069262;28;20313;-44
2023/08/08 11:32:44;;;;;;;1.50;1.40;;;;;;;24.26;45.91;94819.84;5068820;28;20696;-42
2023/08/08 11:35:11;;;;;;;1.65;1.50;;;;;;;24.32;46.75;94818.19;5069436;28;20202;-42